createdAt,value
2022-12-09T00:02:51.354Z,65.56
2022-12-09T00:05:53.167Z,65.48
2022-12-09T00:08:56.666Z,65.52
2022-12-09T00:11:58.282Z,65.47
2022-12-09T00:15:00.043Z,65.23
2022-12-09T00:18:01.738Z,65.52
2022-12-09T00:21:15.573Z,65.43
2022-12-09T00:24:17.098Z,65.60
2022-12-09T00:27:18.716Z,65.56
2022-12-09T00:30:20.196Z,65.58
2022-12-09T00:33:22.104Z,65.59
2022-12-09T00:36:24.799Z,65.80
2022-12-09T00:39:26.464Z,65.62
2022-12-09T00:42:28.068Z,65.62
2022-12-09T00:45:29.691Z,65.67
2022-12-09T00:48:34.311Z,65.74
2022-12-09T00:51:36.185Z,65.55
2022-12-09T00:54:37.770Z,65.63
2022-12-09T00:57:40.169Z,65.64
2022-12-09T01:00:41.956Z,65.70
2022-12-09T01:03:44.231Z,65.71
2022-12-09T01:06:46.082Z,65.67
2022-12-09T01:09:47.793Z,65.60
2022-12-09T01:12:49.431Z,65.74
2022-12-09T01:15:51.020Z,65.77
2022-12-09T01:18:54.696Z,65.70
2022-12-09T01:21:57.626Z,65.76
2022-12-09T01:25:00.195Z,65.71
2022-12-09T01:28:01.831Z,65.88
2022-12-09T01:31:13.026Z,65.81
2022-12-09T01:34:14.616Z,65.78
2022-12-09T01:37:16.904Z,65.74
2022-12-09T01:40:19.069Z,65.75
2022-12-09T01:43:22.043Z,65.76
2022-12-09T01:46:23.632Z,65.73
2022-12-09T01:49:27.665Z,65.78
2022-12-09T01:52:29.294Z,65.61
2022-12-09T01:55:31.175Z,65.53
2022-12-09T01:58:33.195Z,65.58
2022-12-09T02:01:36.023Z,65.55
2022-12-09T02:04:41.831Z,65.33
2022-12-09T02:07:43.764Z,65.48
2022-12-09T02:11:18.405Z,65.43
2022-12-09T02:14:28.470Z,65.58
2022-12-09T02:17:36.064Z,65.66
2022-12-09T02:20:52.651Z,65.60
2022-12-09T02:23:57.737Z,65.63
2022-12-09T02:27:05.008Z,65.85
2022-12-09T02:30:36.805Z,65.64
2022-12-09T02:33:59.373Z,65.66
2022-12-09T02:37:27.394Z,65.61
2022-12-09T02:41:08.319Z,65.56
2022-12-09T02:44:17.188Z,65.66
2022-12-09T02:47:23.663Z,65.72
2022-12-09T02:50:32.203Z,65.70
2022-12-09T02:53:35.997Z,65.59
2022-12-09T02:56:45.416Z,65.53
2022-12-09T02:59:47.172Z,65.62
2022-12-09T03:02:52.934Z,65.54
2022-12-09T03:06:14.464Z,65.56
2022-12-09T03:09:40.029Z,65.51
2022-12-09T03:12:45.007Z,65.58
2022-12-09T03:15:51.402Z,65.56
2022-12-09T03:19:10.159Z,65.63
2022-12-09T03:22:15.520Z,65.68
2022-12-09T03:25:46.321Z,65.65
2022-12-09T03:28:50.270Z,65.78
2022-12-09T03:31:55.431Z,65.83
2022-12-09T03:35:08.412Z,65.61
2022-12-09T03:38:16.084Z,65.64
2022-12-09T03:41:29.583Z,65.62
2022-12-09T03:44:43.878Z,65.64
2022-12-09T03:47:45.999Z,65.60
2022-12-09T03:50:59.671Z,65.55
2022-12-09T03:54:06.875Z,65.66
2022-12-09T03:57:17.021Z,65.65
2022-12-09T04:00:20.534Z,65.20
2022-12-09T04:03:22.687Z,65.62
2022-12-09T04:06:25.304Z,65.58
2022-12-09T04:09:27.062Z,65.68
2022-12-09T04:12:28.631Z,65.72
2022-12-09T04:15:30.166Z,65.58
2022-12-09T04:18:32.125Z,65.60
2022-12-09T04:21:33.743Z,65.59
2022-12-09T04:24:35.552Z,65.56
2022-12-09T04:27:37.613Z,65.64
2022-12-09T04:30:44.022Z,65.50
2022-12-09T04:33:47.424Z,65.41
2022-12-09T04:36:49.397Z,65.33
2022-12-09T04:39:50.994Z,65.39
2022-12-09T04:42:52.908Z,65.28
2022-12-09T04:45:54.995Z,65.41
2022-12-09T04:48:56.866Z,65.49
2022-12-09T04:52:00.083Z,65.35
2022-12-09T04:55:02.319Z,65.36
2022-12-09T04:58:03.953Z,65.37
2022-12-09T05:01:14.539Z,65.30
2022-12-09T05:04:16.778Z,65.38
2022-12-09T05:07:18.780Z,65.39
2022-12-09T05:10:20.779Z,65.41
2022-12-09T05:13:22.559Z,65.34
2022-12-09T05:16:24.385Z,65.35
2022-12-09T05:19:26.527Z,65.12
2022-12-09T05:22:28.272Z,65.15
2022-12-09T05:25:29.925Z,65.32
2022-12-09T05:28:32.447Z,65.07
2022-12-09T05:31:34.226Z,65.02
2022-12-09T05:34:35.980Z,64.98
2022-12-09T05:37:37.879Z,64.98
2022-12-09T05:40:39.783Z,64.81
2022-12-09T05:43:41.808Z,64.88
2022-12-09T05:46:43.523Z,64.98
2022-12-09T05:49:45.434Z,64.96
2022-12-09T05:52:47.195Z,65.03
2022-12-09T05:55:48.878Z,64.92
2022-12-09T05:58:52.729Z,64.93
2022-12-09T06:01:55.099Z,64.97
2022-12-09T06:04:57.148Z,64.95
2022-12-09T06:08:02.465Z,64.83
2022-12-09T06:11:12.227Z,64.93
2022-12-09T06:14:14.492Z,64.98
2022-12-09T06:17:16.449Z,65.15
2022-12-09T06:20:18.819Z,64.97
2022-12-09T06:23:20.802Z,64.94
2022-12-09T06:26:28.305Z,64.97
2022-12-09T06:29:30.167Z,64.81
2022-12-09T06:32:32.291Z,64.83
2022-12-09T06:35:34.491Z,64.66
2022-12-09T06:38:36.477Z,64.74
2022-12-09T06:41:41.362Z,64.58
2022-12-09T06:44:43.149Z,64.46
2022-12-09T06:47:45.161Z,64.45
2022-12-09T06:50:47.220Z,64.51
2022-12-09T06:53:48.967Z,64.64
2022-12-09T06:56:50.839Z,64.63
2022-12-09T06:59:52.518Z,64.75
2022-12-09T07:02:54.511Z,64.86
2022-12-09T07:05:56.647Z,65.05
2022-12-09T07:09:13.434Z,65.19
2022-12-09T07:12:15.445Z,65.40
2022-12-09T07:15:17.122Z,65.82
2022-12-09T07:18:19.160Z,65.61
2022-12-09T07:21:22.797Z,65.88
2022-12-09T07:24:24.832Z,65.69
2022-12-09T07:27:26.790Z,65.70
2022-12-09T07:30:28.664Z,65.51
2022-12-09T07:33:31.166Z,65.55
2022-12-09T07:36:35.132Z,65.56
2022-12-09T07:39:36.819Z,65.58
2022-12-09T07:42:38.631Z,65.67
2022-12-09T07:45:40.981Z,65.87
2022-12-09T07:48:43.409Z,65.99
2022-12-09T07:51:45.843Z,66.08
2022-12-09T07:54:47.421Z,66.27
2022-12-09T07:57:49.119Z,66.44
2022-12-09T08:00:50.842Z,66.44
2022-12-09T08:03:53.663Z,66.61
2022-12-09T08:06:56.069Z,66.47
2022-12-09T08:09:58.003Z,66.28
2022-12-09T08:13:00.014Z,66.51
2022-12-09T08:16:07.030Z,66.36
2022-12-09T08:19:09.176Z,66.34
2022-12-09T08:22:11.178Z,66.23
2022-12-09T08:25:13.008Z,66.23
2022-12-09T08:28:15.164Z,66.11
2022-12-09T08:31:21.860Z,66.26
2022-12-09T08:34:24.051Z,66.27
2022-12-09T08:37:25.972Z,66.36
2022-12-09T08:40:28.016Z,66.40
2022-12-09T08:43:29.669Z,66.40
2022-12-09T08:46:32.244Z,66.61
2022-12-09T08:49:34.194Z,66.79
2022-12-09T08:52:40.533Z,66.93
2022-12-09T08:55:43.029Z,66.97
2022-12-09T08:58:44.754Z,67.32
2022-12-09T09:01:46.623Z,67.66
2022-12-09T09:04:48.679Z,67.77
2022-12-09T09:07:50.629Z,67.86
2022-12-09T09:10:52.827Z,68.15
2022-12-09T09:13:54.744Z,68.46
2022-12-09T09:16:56.810Z,68.91
2022-12-09T09:19:58.653Z,68.93
2022-12-09T09:23:03.300Z,69.28
2022-12-09T09:26:10.927Z,69.71
2022-12-09T09:29:15.196Z,70.11
2022-12-09T09:32:17.142Z,70.17
2022-12-09T09:35:18.868Z,70.33
2022-12-09T09:38:20.626Z,70.57
2022-12-09T09:41:40.382Z,70.45
2022-12-09T09:44:44.821Z,70.46
2022-12-09T09:48:02.944Z,70.61
2022-12-09T09:51:26.177Z,70.43
2022-12-09T09:54:28.060Z,70.36
2022-12-09T09:57:39.773Z,70.33
2022-12-09T10:00:50.780Z,70.24
2022-12-09T10:04:17.324Z,70.29
2022-12-09T10:07:39.731Z,70.21
2022-12-09T10:11:03.841Z,70.04
2022-12-09T10:14:14.062Z,70.05
2022-12-09T10:17:18.764Z,70.00
2022-12-09T10:20:27.823Z,70.24
2022-12-09T10:23:34.217Z,70.02
2022-12-09T10:26:37.446Z,69.98
2022-12-09T10:29:57.025Z,69.97
2022-12-09T10:32:59.662Z,69.96
2022-12-09T10:36:02.157Z,69.93
2022-12-09T10:39:05.288Z,69.83
2022-12-09T10:42:34.666Z,69.88
2022-12-09T10:46:17.288Z,69.78
2022-12-09T10:49:22.078Z,69.73
2022-12-09T10:52:29.726Z,69.66
2022-12-09T10:55:36.496Z,69.64
2022-12-09T10:58:38.046Z,69.71
2022-12-09T11:02:01.998Z,69.54
2022-12-09T11:05:27.725Z,69.63
2022-12-09T11:08:30.296Z,69.70
2022-12-09T11:11:58.654Z,69.68
2022-12-09T11:15:02.932Z,69.87
2022-12-09T11:18:23.218Z,69.92
2022-12-09T11:21:29.755Z,69.99
2022-12-09T11:24:32.537Z,69.98
2022-12-09T11:27:34.892Z,70.06
2022-12-09T11:31:19.901Z,70.09
2022-12-09T11:34:20.731Z,70.11
2022-12-09T11:37:22.873Z,70.02
2022-12-09T11:40:27.341Z,70.04
2022-12-09T11:43:36.379Z,70.09
2022-12-09T11:46:38.307Z,70.14
2022-12-09T11:49:56.473Z,70.01
2022-12-09T11:53:27.418Z,70.16
2022-12-09T11:56:29.896Z,70.06
2022-12-09T11:59:40.169Z,70.00
2022-12-09T12:02:49.554Z,69.99
2022-12-09T12:05:55.001Z,70.15
2022-12-09T12:09:04.282Z,70.15
2022-12-09T12:12:08.954Z,70.14
2022-12-09T12:15:19.896Z,70.28
2022-12-09T12:18:22.861Z,70.28
2022-12-09T12:21:53.776Z,70.30
2022-12-09T12:25:33.628Z,70.40
2022-12-09T12:29:00.165Z,70.59
2022-12-09T12:32:39.502Z,70.79
2022-12-09T12:36:01.332Z,70.72
2022-12-09T12:39:21.475Z,70.82
2022-12-09T12:42:28.909Z,70.57
2022-12-09T12:45:58.132Z,70.58
2022-12-09T12:49:24.447Z,70.20
2022-12-09T12:52:55.928Z,69.93
2022-12-09T12:56:03.615Z,69.69
2022-12-09T12:59:29.866Z,69.63
2022-12-09T13:02:31.366Z,69.49
2022-12-09T13:05:37.720Z,69.32
2022-12-09T13:08:46.005Z,69.20
2022-12-09T13:12:12.177Z,69.11
2022-12-09T13:15:16.574Z,68.90
2022-12-09T13:18:28.787Z,68.92
2022-12-09T13:21:30.240Z,68.92
2022-12-09T13:24:42.155Z,68.92
2022-12-09T13:27:54.037Z,68.77
2022-12-09T13:30:58.839Z,68.79
2022-12-09T13:34:21.776Z,68.89
2022-12-09T13:37:41.920Z,68.69
2022-12-09T13:40:43.429Z,68.86
2022-12-09T13:43:44.979Z,68.63
2022-12-09T13:46:46.883Z,68.75
2022-12-09T13:50:06.883Z,68.51
2022-12-09T13:53:20.747Z,68.47
2022-12-09T13:56:26.825Z,68.36
2022-12-09T13:59:39.241Z,68.21
2022-12-09T14:02:50.487Z,68.14
2022-12-09T14:05:55.965Z,68.19
2022-12-09T14:09:02.740Z,68.06
2022-12-09T14:12:09.929Z,68.04
2022-12-09T14:15:23.636Z,67.92
2022-12-09T14:18:28.817Z,67.87
2022-12-09T14:21:33.345Z,67.83
2022-12-09T14:24:35.393Z,67.69
2022-12-09T14:27:36.859Z,67.61
2022-12-09T14:30:52.013Z,67.58
2022-12-09T14:33:53.548Z,67.49
2022-12-09T14:37:19.042Z,67.50
2022-12-09T14:40:31.135Z,67.39
2022-12-09T14:43:38.304Z,67.35
2022-12-09T14:46:42.220Z,67.35
2022-12-09T14:49:49.186Z,67.17
2022-12-09T14:52:53.133Z,67.17
2022-12-09T14:55:54.798Z,67.19
2022-12-09T14:59:01.967Z,66.99
2022-12-09T15:02:19.306Z,66.95
2022-12-09T15:05:21.641Z,67.00
2022-12-09T15:08:32.147Z,66.80
2022-12-09T15:11:35.398Z,66.46
2022-12-09T15:14:41.608Z,66.72
2022-12-09T15:17:47.305Z,66.57
2022-12-09T15:20:55.257Z,66.58
2022-12-09T15:23:58.517Z,66.73
2022-12-09T15:27:02.846Z,66.53
2022-12-09T15:30:23.278Z,66.41
2022-12-09T15:33:25.945Z,66.51
2022-12-09T15:36:31.931Z,66.43
2022-12-09T15:39:52.968Z,66.30
2022-12-09T15:42:59.719Z,66.49
2022-12-09T15:46:01.765Z,66.45
2022-12-09T15:49:05.131Z,66.55
2022-12-09T15:52:07.675Z,66.45
2022-12-09T15:55:14.440Z,66.47
2022-12-09T15:58:20.448Z,66.37
2022-12-09T16:01:25.893Z,66.41
2022-12-09T16:04:35.237Z,66.40
2022-12-09T16:07:37.523Z,66.38
2022-12-09T16:10:50.625Z,66.24
2022-12-09T16:14:00.356Z,66.19
2022-12-09T16:17:03.832Z,66.21
2022-12-09T16:20:31.526Z,66.12
2022-12-09T16:23:33.141Z,66.03
2022-12-09T16:26:38.670Z,66.09
2022-12-09T16:29:40.105Z,66.00
2022-12-09T16:32:47.183Z,65.88
2022-12-09T16:36:02.157Z,65.86
2022-12-09T16:39:09.318Z,65.81
2022-12-09T16:42:36.574Z,65.65
2022-12-09T16:45:53.233Z,65.56
2022-12-09T16:48:54.742Z,65.55
2022-12-09T16:51:56.677Z,65.64
2022-12-09T16:54:58.152Z,65.67
2022-12-09T16:57:59.990Z,65.33
2022-12-09T17:01:03.477Z,65.31
2022-12-09T17:04:13.722Z,65.12
2022-12-09T17:07:15.289Z,65.15
2022-12-09T17:10:16.993Z,64.96
2022-12-09T17:13:18.464Z,64.95
2022-12-09T17:16:22.516Z,64.83
2022-12-09T17:19:24.130Z,64.75
2022-12-09T17:22:25.598Z,64.88
2022-12-09T17:25:29.629Z,64.75
2022-12-09T17:28:31.571Z,64.82
2022-12-09T17:31:33.031Z,64.79
2022-12-09T17:34:34.618Z,64.95
2022-12-09T17:37:36.214Z,64.88
2022-12-09T17:40:38.013Z,64.96
2022-12-09T17:43:39.562Z,64.96
2022-12-09T17:46:41.019Z,65.12
2022-12-09T17:49:42.493Z,65.09
2022-12-09T17:52:44.154Z,65.06
2022-12-09T17:55:45.623Z,65.10
2022-12-09T17:58:53.694Z,64.97
2022-12-09T18:01:55.226Z,65.04
2022-12-09T18:04:56.798Z,65.02
2022-12-09T18:07:58.918Z,64.97
2022-12-09T18:11:08.224Z,64.91
2022-12-09T18:14:10.742Z,64.94
2022-12-09T18:17:12.300Z,64.93
2022-12-09T18:20:13.916Z,64.91
2022-12-09T18:23:15.917Z,65.03
2022-12-09T18:26:19.276Z,65.08
2022-12-09T18:29:21.037Z,64.92
2022-12-09T18:32:22.604Z,64.92
2022-12-09T18:35:24.063Z,64.96
2022-12-09T18:38:25.530Z,64.88
2022-12-09T18:41:29.362Z,65.05
2022-12-09T18:44:30.911Z,64.87
2022-12-09T18:47:32.380Z,64.87
2022-12-09T18:50:37.198Z,64.87
2022-12-09T18:53:38.613Z,64.80
2022-12-09T18:56:40.075Z,64.90
2022-12-09T18:59:41.542Z,64.73
2022-12-09T19:02:43.078Z,64.76
2022-12-09T19:05:44.652Z,64.83
2022-12-09T19:08:46.673Z,64.71
2022-12-09T19:11:49.486Z,64.67
2022-12-09T19:14:50.963Z,64.58
2022-12-09T19:17:52.481Z,64.85
2022-12-09T19:20:53.908Z,64.78
2022-12-09T19:23:55.880Z,64.71
2022-12-09T19:26:57.806Z,64.67
2022-12-09T19:29:59.284Z,64.78
2022-12-09T19:33:00.725Z,64.65
2022-12-09T19:36:05.664Z,64.63
2022-12-09T19:39:09.182Z,64.62
2022-12-09T19:42:10.658Z,64.54
2022-12-09T19:45:14.427Z,64.57
2022-12-09T19:48:16.134Z,64.61
2022-12-09T19:51:18.522Z,64.56
2022-12-09T19:54:26.749Z,64.46
2022-12-09T19:57:29.814Z,64.54
2022-12-09T20:00:34.581Z,64.40
2022-12-09T20:03:40.220Z,64.61
2022-12-09T20:06:43.235Z,64.57
2022-12-09T20:09:44.704Z,64.55
2022-12-09T20:12:46.171Z,64.60
2022-12-09T20:15:47.671Z,64.65
2022-12-09T20:18:50.925Z,64.59
2022-12-09T20:21:52.430Z,64.70
2022-12-09T20:24:53.890Z,64.39
2022-12-09T20:27:55.985Z,64.57
2022-12-09T20:31:05.835Z,64.60
2022-12-09T20:34:12.331Z,64.59
2022-12-09T20:37:13.778Z,64.59
2022-12-09T20:40:15.265Z,64.65
2022-12-09T20:43:16.707Z,64.38
2022-12-09T20:46:32.176Z,64.60
2022-12-09T20:49:33.662Z,64.65
2022-12-09T20:52:35.095Z,64.63
2022-12-09T20:55:36.564Z,64.60
2022-12-09T20:58:39.718Z,64.57
2022-12-09T21:01:42.072Z,64.52
2022-12-09T21:04:45.183Z,64.58
2022-12-09T21:07:46.673Z,64.74
2022-12-09T21:10:48.683Z,64.58
2022-12-09T21:13:53.541Z,64.43
2022-12-09T21:16:55.024Z,64.42
2022-12-09T21:19:56.785Z,64.31
2022-12-09T21:23:31.887Z,64.50
2022-12-09T21:26:21.646Z,64.46
2022-12-09T21:29:29.907Z,64.73
2022-12-09T21:32:33.410Z,64.44
2022-12-09T21:35:36.376Z,64.48
2022-12-09T21:38:38.470Z,64.43
2022-12-09T21:41:40.053Z,64.29
2022-12-09T21:44:42.196Z,64.48
2022-12-09T21:47:43.659Z,64.51
2022-12-09T21:50:45.081Z,64.42
2022-12-09T21:53:47.199Z,64.43
2022-12-09T21:56:48.740Z,64.23
2022-12-09T21:59:50.184Z,64.36
2022-12-09T22:02:52.460Z,64.40
2022-12-09T22:05:58.302Z,64.24
2022-12-09T22:09:02.126Z,64.24
2022-12-09T22:12:03.911Z,64.19
2022-12-09T22:15:07.060Z,64.27
2022-12-09T22:18:08.509Z,64.26
2022-12-09T22:21:28.818Z,64.22
2022-12-09T22:24:30.954Z,64.26
2022-12-09T22:27:32.823Z,64.22
2022-12-09T22:30:36.413Z,64.21
2022-12-09T22:33:38.222Z,64.32
2022-12-09T22:36:41.036Z,64.23
2022-12-09T22:39:42.599Z,64.23
2022-12-09T22:42:44.060Z,64.27
2022-12-09T22:45:45.564Z,64.33
2022-12-09T22:48:47.394Z,64.25
2022-12-09T22:51:48.963Z,64.28
2022-12-09T22:54:50.915Z,64.37
2022-12-09T22:57:52.325Z,63.86
2022-12-09T23:00:54.666Z,64.23
2022-12-09T23:03:57.779Z,64.20
2022-12-09T23:06:59.238Z,64.16
2022-12-09T23:10:01.516Z,64.07
2022-12-09T23:13:02.987Z,64.22
2022-12-09T23:16:05.957Z,64.28
2022-12-09T23:19:07.431Z,64.20
2022-12-09T23:22:08.867Z,64.30
2022-12-09T23:25:10.694Z,64.23
2022-12-09T23:28:12.117Z,64.21
2022-12-09T23:31:15.275Z,64.41
2022-12-09T23:34:17.604Z,64.50
2022-12-09T23:37:19.060Z,64.54
2022-12-09T23:40:20.632Z,64.54
2022-12-09T23:43:22.130Z,64.55
2022-12-09T23:46:26.085Z,64.58
2022-12-09T23:49:27.682Z,64.60
2022-12-09T23:52:29.121Z,64.74
2022-12-09T23:55:30.575Z,64.69
2022-12-09T23:58:32.210Z,64.67
